createdAt,value
2022-10-21T00:03:06.382Z,15.16
2022-10-21T00:13:08.940Z,15.19
2022-10-21T00:23:11.205Z,15.13
2022-10-21T00:33:14.075Z,15.08
2022-10-21T00:43:17.276Z,15.03
2022-10-21T00:53:20.269Z,15.00
2022-10-21T01:03:25.714Z,15.03
2022-10-21T01:13:46.713Z,15.11
2022-10-21T01:24:26.636Z,15.11
2022-10-21T01:34:56.906Z,15.03
2022-10-21T01:45:33.668Z,14.96
2022-10-21T01:55:37.373Z,14.87
2022-10-21T02:05:40.833Z,14.80
2022-10-21T02:15:44.142Z,14.75
2022-10-21T02:25:50.796Z,14.72
2022-10-21T02:36:02.904Z,14.70
2022-10-21T02:46:11.062Z,14.68
2022-10-21T02:56:13.298Z,14.76
2022-10-21T03:06:15.882Z,14.79
2022-10-21T03:26:25.997Z,14.74
2022-10-21T03:36:28.733Z,14.73
2022-10-21T03:46:31.308Z,14.70
2022-10-21T03:56:33.792Z,14.68
2022-10-21T04:06:36.387Z,14.68
2022-10-21T04:16:39.168Z,14.66
2022-10-21T04:26:45.038Z,14.64
2022-10-21T04:36:47.760Z,14.59
2022-10-21T04:46:51.079Z,14.55
2022-10-21T04:56:53.481Z,14.54
2022-10-21T05:06:55.873Z,14.50
2022-10-21T05:16:58.138Z,14.49
2022-10-21T05:27:00.439Z,14.49
2022-10-21T05:37:02.982Z,14.46
2022-10-21T05:47:05.454Z,14.45
2022-10-21T05:57:08.248Z,14.39
2022-10-21T06:07:11.116Z,14.36
2022-10-21T06:17:13.627Z,14.33
2022-10-21T06:27:16.252Z,14.32
2022-10-21T06:37:20.049Z,14.33
2022-10-21T06:47:23.607Z,14.32
2022-10-21T06:57:28.050Z,14.43
2022-10-21T07:07:30.976Z,14.48
2022-10-21T07:17:33.501Z,14.54
2022-10-21T07:27:37.280Z,14.63
2022-10-21T07:37:42.569Z,14.69
2022-10-21T07:47:49.229Z,14.72
2022-10-21T07:57:53.627Z,14.73
2022-10-21T08:07:59.351Z,14.74
2022-10-21T08:18:03.354Z,14.76
2022-10-21T08:28:07.469Z,14.76
2022-10-21T08:38:11.225Z,14.75
2022-10-21T08:48:18.999Z,14.77
2022-10-21T08:58:24.607Z,14.79
2022-10-21T09:08:36.422Z,14.89
2022-10-21T09:18:56.147Z,14.99
2022-10-21T09:29:16.504Z,15.17
2022-10-21T09:39:35.947Z,15.40
2022-10-21T09:50:05.950Z,15.44
2022-10-21T10:00:06.201Z,15.55
2022-10-21T10:10:32.974Z,15.85
2022-10-21T10:20:35.950Z,15.89
2022-10-21T10:30:56.848Z,16.09
2022-10-21T10:41:11.770Z,16.18
2022-10-21T10:51:35.979Z,16.56
2022-10-21T11:01:52.075Z,16.74
2022-10-21T11:11:57.608Z,16.68
2022-10-21T11:22:33.110Z,16.69
2022-10-21T11:33:00.548Z,16.78
2022-10-21T11:43:23.420Z,16.77
2022-10-21T11:53:39.275Z,16.65
2022-10-21T12:04:07.120Z,16.59
2022-10-21T12:14:35.568Z,16.59
2022-10-21T12:24:48.866Z,16.49
2022-10-21T12:34:55.133Z,16.32
2022-10-21T12:45:00.388Z,16.43
2022-10-21T12:55:10.222Z,16.31
2022-10-21T13:05:13.768Z,16.30
2022-10-21T13:15:22.350Z,16.43
2022-10-21T13:25:25.323Z,16.38
2022-10-21T13:35:43.267Z,16.22
2022-10-21T13:45:50.079Z,16.30
2022-10-21T13:56:01.394Z,16.52
2022-10-21T14:06:05.841Z,16.69
2022-10-21T14:16:10.110Z,16.70
2022-10-21T14:26:13.536Z,16.63
2022-10-21T14:36:28.671Z,16.65
2022-10-21T14:46:39.991Z,16.49
2022-10-21T14:56:44.906Z,16.37
2022-10-21T15:07:02.045Z,16.21
2022-10-21T15:17:10.784Z,16.10
2022-10-21T15:27:37.126Z,16.04
2022-10-21T15:37:40.549Z,15.91
2022-10-21T15:47:43.232Z,15.79
2022-10-21T15:57:45.935Z,15.66
2022-10-21T16:07:49.415Z,15.47
2022-10-21T16:17:55.254Z,15.29
2022-10-21T16:27:57.986Z,15.11
2022-10-21T16:38:00.511Z,14.88
2022-10-21T16:48:06.228Z,14.70
2022-10-21T16:58:08.987Z,14.56
2022-10-21T17:08:11.488Z,14.40
2022-10-21T17:18:15.733Z,14.39
2022-10-21T17:28:18.597Z,14.30
2022-10-21T17:38:21.621Z,14.24
2022-10-21T17:48:26.186Z,14.29
2022-10-21T17:58:30.134Z,14.36
2022-10-21T18:08:33.043Z,14.38
2022-10-21T18:18:37.339Z,14.39
2022-10-21T18:28:40.053Z,14.39
2022-10-21T18:38:42.747Z,14.37
2022-10-21T18:48:45.744Z,14.36
2022-10-21T18:58:48.814Z,14.36
2022-10-21T19:08:51.665Z,14.30
2022-10-21T19:18:55.673Z,14.29
2022-10-21T19:29:04.456Z,14.32
2022-10-21T19:39:07.195Z,14.47
2022-10-21T19:49:12.163Z,14.45
2022-10-21T19:59:14.938Z,14.38
2022-10-21T20:09:17.665Z,14.33
2022-10-21T20:19:20.112Z,14.29
2022-10-21T20:29:22.575Z,14.20
2022-10-21T20:39:25.073Z,14.09
2022-10-21T20:49:27.779Z,13.97
2022-10-21T20:59:30.531Z,13.92
2022-10-21T21:09:50.672Z,13.76
2022-10-21T21:19:55.851Z,13.61
2022-10-21T21:29:59.280Z,13.47
2022-10-21T21:40:02.200Z,13.39
2022-10-21T21:50:05.070Z,13.36
2022-10-21T22:00:08.797Z,13.31
2022-10-21T22:10:12.107Z,13.25
2022-10-21T22:20:14.958Z,13.19
2022-10-21T22:30:17.951Z,13.11
2022-10-21T22:40:20.509Z,12.99
2022-10-21T22:50:23.173Z,12.94
2022-10-21T23:00:25.589Z,12.86
2022-10-21T23:10:27.973Z,12.79
2022-10-21T23:20:30.609Z,12.68
2022-10-21T23:30:32.884Z,12.69
2022-10-21T23:40:35.301Z,12.67
2022-10-21T23:50:42.243Z,12.65
